Time;durP1;ratioP1;P1;durP2;ratioP2;P2;SDS_P1;SDS_P2;PMS_P1;PMS_P2;Temp;Humidity;BMP_temperature;BMP_pressure;BME280_temperature;BME280_humidity;BME280_pressure;Samples;Min_cycle;Max_cycle;Signal;HPM_P1;HPM_P2
2021/12/31 00:00:11;;;;;;;;;;;;;;;-2.78;100.00;99529.50;1674668;84;20151;-68
2021/12/31 00:02:38;;;;;;;;;;;;;;;-2.77;100.00;99527.98;1664583;85;20116;-68
2021/12/31 00:05:04;;;;;;;;;;;;;;;-2.79;100.00;99527.34;1668459;86;20168;-68
2021/12/31 00:07:30;;;;;;;;;;;;;;;-2.77;100.00;99518.66;1672432;86;20458;-69
2021/12/31 00:10:00;;;;;;;;;;;;;;;-2.75;100.00;99507.29;1679755;85;20134;-69
2021/12/31 00:12:26;;;;;;;;;;;;;;;-2.72;100.00;99517.56;1678868;83;20151;-69
2021/12/31 00:14:52;;;;;;;;;;;;;;;-2.74;100.00;99518.27;1667373;85;20143;-69
2021/12/31 00:17:18;;;;;;;;;;;;;;;-2.72;100.00;99512.73;1677561;83;20112;-69
2021/12/31 00:19:46;;;;;;;;;;;;;;;-2.71;100.00;99498.41;1679369;83;20198;-68
2021/12/31 00:24:58;;;;;;;;;;;;;;;-2.74;100.00;99503.63;1696751;83;20108;-69
2021/12/31 00:27:25;;;;;;;;;;;;;;;-2.74;100.00;99500.95;1667623;85;20144;-68
2021/12/31 00:29:51;;;;;;;;;;;;;;;-2.74;100.00;99497.46;1671547;85;20156;-68
2021/12/31 00:32:18;;;;;;;;;;;;;;;-2.74;100.00;99494.30;1667473;85;20156;-68
2021/12/31 00:34:45;;;;;;;;;;;;;;;-2.73;100.00;99484.47;1670663;85;20109;-68
2021/12/31 00:37:11;;;;;;;;;;;;;;;-2.71;100.00;99480.58;1664714;85;20410;-69
2021/12/31 00:39:37;;;;;;;;;;;;;;;-2.72;100.00;99486.09;1666813;85;20139;-69
2021/12/31 00:42:04;;;;;;;;;;;;;;;-2.74;100.00;99480.14;1691936;84;20146;-68
2021/12/31 00:44:30;;;;;;;;;;;;;;;-2.72;100.00;99487.42;1691744;84;20146;-68
2021/12/31 00:46:56;;;;;;;;;;;;;;;-2.74;100.00;99486.30;1690368;84;20405;-68
2021/12/31 00:49:23;;;;;;;;;;;;;;;-2.72;100.00;99480.26;1674516;84;20564;-68
2021/12/31 00:51:49;;;;;;;;;;;;;;;-2.70;100.00;99481.41;1673480;84;20099;-68
2021/12/31 00:54:15;;;;;;;;;;;;;;;-2.69;100.00;99475.05;1676590;85;20123;-69
2021/12/31 00:56:44;;;;;;;;;;;;;;;-2.70;100.00;99477.41;1673530;84;20158;-68
2021/12/31 00:59:10;;;;;;;;;;;;;;;-2.69;100.00;99468.38;1674225;85;20111;-69
2021/12/31 01:01:37;;;;;;;;;;;;;;;-2.69;100.00;99475.05;1690920;83;20492;-68
2021/12/31 01:04:03;;;;;;;;;;;;;;;-2.69;100.00;99471.88;1691831;84;20138;-68
2021/12/31 01:06:30;;;;;;;;;;;;;;;-2.70;100.00;99466.76;1681065;83;20119;-69
2021/12/31 01:08:56;;;;;;;;;;;;;;;-2.70;100.00;99455.59;1674490;84;20424;-68
2021/12/31 01:11:23;;;;;;;;;;;;;;;-2.66;100.00;99458.70;1675023;84;20135;-69
2021/12/31 01:13:56;;;;;;;;;;;;;;;-2.63;100.00;99451.64;1715495;83;20101;-68
2021/12/31 01:16:20;;;;;;;;;;;;;;;-2.63;100.00;99451.14;1700428;83;20164;-69
2021/12/31 01:21:16;;;;;;;;;;;;;;;-2.61;100.00;99439.77;1696622;84;20528;-69
2021/12/31 01:23:42;;;;;;;;;;;;;;;-2.60;100.00;99437.42;1672463;85;20123;-68
2021/12/31 01:26:09;;;;;;;;;;;;;;;-2.57;100.00;99436.20;1686693;85;20132;-69
2021/12/31 01:28:36;;;;;;;;;;;;;;;-2.58;100.00;99435.38;1688447;84;20111;-68
2021/12/31 01:31:03;;;;;;;;;;;;;;;-2.54;100.00;99427.30;1679469;84;20142;-68
2021/12/31 01:33:29;;;;;;;;;;;;;;;-2.52;100.00;99427.13;1686950;84;20100;-69
2021/12/31 01:35:56;;;;;;;;;;;;;;;-2.51;100.00;99430.08;1688886;84;20124;-68
2021/12/31 01:38:22;;;;;;;;;;;;;;;-2.48;100.00;99436.89;1689494;84;20174;-68
2021/12/31 01:40:49;;;;;;;;;;;;;;;-2.51;100.00;99432.24;1683004;84;20108;-69
2021/12/31 01:43:18;;;;;;;;;;;;;;;-2.50;100.00;99430.41;1682433;84;20425;-68
2021/12/31 01:45:47;;;;;;;;;;;;;;;-2.52;100.00;99427.95;1674994;84;20134;-68
2021/12/31 01:48:36;;;;;;;;;;;;;;;-2.53;100.00;99424.96;1685953;84;20112;-68
2021/12/31 01:50:40;;;;;;;;;;;;;;;-2.52;100.00;99421.80;1693088;83;20470;-69
2021/12/31 01:53:06;;;;;;;;;;;;;;;-2.51;100.00;99420.75;1684109;83;20111;-68
2021/12/31 01:55:33;;;;;;;;;;;;;;;-2.48;100.00;99406.23;1689533;83;20143;-68
2021/12/31 01:58:01;;;;;;;;;;;;;;;-2.49;100.00;99404.58;1683532;84;20174;-68
2021/12/31 02:00:27;;;;;;;;;;;;;;;-2.46;100.00;99403.67;1689006;83;20162;-68
2021/12/31 02:02:54;;;;;;;;;;;;;;;-2.47;100.00;99396.69;1684709;84;20139;-68
2021/12/31 02:05:21;;;;;;;;;;;;;;;-2.44;100.00;99394.95;1687303;85;20144;-68
2021/12/31 02:07:47;;;;;;;;;;;;;;;-2.43;100.00;99394.45;1697759;84;20149;-68
2021/12/31 02:10:14;;;;;;;;;;;;;;;-2.42;100.00;99388.94;1689774;84;20175;-68
2021/12/31 02:12:45;;;;;;;;;;;;;;;-2.40;100.00;99388.22;1688527;84;20426;-69
2021/12/31 02:15:16;;;;;;;;;;;;;;;-2.40;100.00;99382.89;1690948;84;20125;-68
2021/12/31 02:17:44;;;;;;;;;;;;;;;-2.38;100.00;99382.70;1689351;84;20127;-69
2021/12/31 02:20:12;;;;;;;;;;;;;;;-2.36;100.00;99382.81;1689314;84;20143;-68
2021/12/31 02:22:38;;;;;;;;;;;;;;;-2.34;100.00;99380.79;1693143;84;20154;-68
2021/12/31 02:25:06;;;;;;;;;;;;;;;-2.33;100.00;99385.59;1688768;84;20121;-68
2021/12/31 02:27:38;;;;;;;;;;;;;;;-2.31;100.00;99387.05;1689606;84;20111;-68
2021/12/31 02:30:05;;;;;;;;;;;;;;;-2.28;100.00;99385.33;1665193;86;20140;-68
2021/12/31 02:32:32;;;;;;;;;;;;;;;-2.29;100.00;99379.67;1674745;85;20137;-68
2021/12/31 02:34:58;;;;;;;;;;;;;;;-2.26;100.00;99377.11;1672898;85;20433;-68
2021/12/31 02:37:24;;;;;;;;;;;;;;;-2.26;100.00;99383.77;1653414;85;20119;-68
2021/12/31 02:39:51;;;;;;;;;;;;;;;-2.25;100.00;99376.09;1653735;85;20127;-68
2021/12/31 02:42:17;;;;;;;;;;;;;;;-2.23;100.00;99374.87;1692314;84;20139;-68
2021/12/31 02:44:44;;;;;;;;;;;;;;;-2.19;100.00;99377.45;1700508;84;20150;-68
2021/12/31 02:47:10;;;;;;;;;;;;;;;-2.17;100.00;99379.43;1689345;84;20119;-68
2021/12/31 02:49:40;;;;;;;;;;;;;;;-2.15;100.00;99377.88;1689922;84;20113;-68
2021/12/31 02:52:09;;;;;;;;;;;;;;;-2.10;100.00;99379.45;1677570;85;20145;-68
2021/12/31 02:54:37;;;;;;;;;;;;;;;-2.10;100.00;99383.45;1674190;84;20136;-68
2021/12/31 02:57:06;;;;;;;;;;;;;;;-2.08;100.00;99380.06;1681588;84;20132;-68
2021/12/31 02:59:33;;;;;;;;;;;;;;;-2.08;100.00;99377.39;1677088;85;20175;-68
2021/12/31 03:01:59;;;;;;;;;;;;;;;-2.03;100.00;99377.63;1671225;84;20119;-68
2021/12/31 03:04:26;;;;;;;;;;;;;;;-2.01;100.00;99379.07;1677464;84;20139;-68
2021/12/31 03:06:52;;;;;;;;;;;;;;;-1.97;100.00;99371.49;1681750;84;20448;-68
2021/12/31 03:09:23;;;;;;;;;;;;;;;-1.93;100.00;99374.08;1681427;84;20116;-68
2021/12/31 03:11:47;;;;;;;;;;;;;;;-1.91;100.00;99373.34;1669126;85;20156;-68
2021/12/31 03:14:14;;;;;;;;;;;;;;;-1.87;100.00;99367.10;1673826;85;20419;-68
2021/12/31 03:16:40;;;;;;;;;;;;;;;-1.88;100.00;99368.97;1668717;85;20395;-68
2021/12/31 03:19:07;;;;;;;;;;;;;;;-1.86;100.00;99376.25;1673920;85;20413;-68
2021/12/31 03:21:33;;;;;;;;;;;;;;;-1.86;100.00;99369.58;1675834;84;20473;-68
2021/12/31 03:26:55;;;;;;;50.05;26.15;;;;;;;-1.79;100.00;99356.25;1869048;75;22710;-65
2021/12/31 03:29:21;;;;;;;48.48;26.17;;;;;;;-1.81;100.00;99358.31;1830950;77;21474;-65
2021/12/31 03:31:49;;;;;;;53.30;30.25;;;;;;;-1.80;100.00;99356.76;1844987;77;21576;-65
2021/12/31 03:34:16;;;;;;;49.25;28.62;;;;;;;-1.78;100.00;99359.24;1830180;77;21013;-65
2021/12/31 03:36:43;;;;;;;49.65;28.73;;;;;;;-1.78;100.00;99363.24;1829778;77;21509;-65
2021/12/31 03:39:11;;;;;;;50.00;28.30;;;;;;;-1.75;100.00;99357.50;1831665;77;20990;-65
2021/12/31 03:41:38;;;;;;;51.02;27.90;;;;;;;-1.77;100.00;99356.89;1842394;77;21067;-65
2021/12/31 03:44:05;;;;;;;48.08;29.15;;;;;;;-1.73;100.00;99357.59;1845603;77;21489;-65
2021/12/31 03:46:33;;;;;;;46.40;26.93;;;;;;;-1.72;100.00;99349.08;1791962;79;21568;-65
2021/12/31 03:48:59;;;;;;;49.18;28.17;;;;;;;-1.72;100.00;99351.25;1763061;80;21497;-65
2021/12/31 03:51:26;;;;;;;47.62;28.23;;;;;;;-1.69;100.00;99347.34;1764106;80;21142;-65
2021/12/31 03:53:52;;;;;;;51.80;28.12;;;;;;;-1.67;100.00;99352.81;1770785;80;21722;-65
2021/12/31 03:56:22;;;;;;;49.58;28.40;;;;;;;-1.68;100.00;99348.48;1808184;79;21048;-64
2021/12/31 03:58:47;;;;;;;49.03;28.70;;;;;;;-1.66;100.00;99346.42;1759172;80;21045;-65
2021/12/31 04:01:13;;;;;;;50.40;29.70;;;;;;;-1.61;100.00;99350.66;1767911;80;21517;-64
2021/12/31 04:03:39;;;;;;;45.40;28.25;;;;;;;-1.60;100.00;99350.15;1767282;80;20969;-64
2021/12/31 04:06:06;;;;;;;50.83;30.02;;;;;;;-1.55;100.00;99341.83;1763540;80;21021;-64
2021/12/31 04:08:34;;;;;;;50.58;28.85;;;;;;;-1.51;100.00;99342.24;1767469;80;21386;-64
2021/12/31 04:11:01;;;;;;;;;;;;;;;-1.49;100.00;99335.38;1757648;80;21041;-64
2021/12/31 04:13:28;;;;;;;53.90;28.62;;;;;;;-1.43;100.00;99337.22;1745324;80;20128;-64
2021/12/31 04:15:54;;;;;;;45.38;26.25;;;;;;;-1.42;100.00;99337.03;1761715;80;21672;-64
2021/12/31 04:18:22;;;;;;;50.55;28.98;;;;;;;-1.41;100.00;99329.31;1755773;80;20993;-64
2021/12/31 04:20:49;;;;;;;52.17;28.42;;;;;;;-1.38;100.00;99328.89;1761385;80;21665;-64
2021/12/31 04:23:47;;;;;;;50.38;28.83;;;;;;;-1.35;100.00;99335.70;1762037;80;20957;-64
2021/12/31 04:25:47;;;;;;;47.13;29.02;;;;;;;-1.32;100.00;99321.93;1759867;80;21137;-64
2021/12/31 04:28:16;;;;;;;;;;;;;;;-1.31;100.00;99318.24;1761682;81;21528;-64
2021/12/31 04:30:42;;;;;;;49.90;28.07;;;;;;;-1.31;100.00;99315.57;1771708;80;20100;-64
2021/12/31 04:33:09;;;;;;;50.52;28.60;;;;;;;-1.32;100.00;99320.59;1811342;79;21443;-65
2021/12/31 04:35:35;;;;;;;54.88;28.83;;;;;;;-1.31;100.00;99321.70;1803826;79;21130;-65
2021/12/31 04:38:02;;;;;;;47.95;29.37;;;;;;;-1.32;100.00;99316.08;1775268;80;21514;-65
2021/12/31 04:40:28;;;;;;;49.25;28.85;;;;;;;-1.29;100.00;99314.84;1790308;79;21010;-64
2021/12/31 04:42:55;;;;;;;;;;;;;;;-1.31;100.00;99313.70;1763606;80;21517;-64
2021/12/31 04:45:21;;;;;;;43.92;24.20;;;;;;;-1.29;100.00;99304.98;1762519;80;20171;-65
2021/12/31 04:47:47;;;;;;;41.25;24.82;;;;;;;-1.31;100.00;99296.34;1751122;80;21072;-65
2021/12/31 04:50:14;;;;;;;41.30;23.77;;;;;;;-1.31;100.00;99296.88;1767933;80;21105;-65
2021/12/31 04:52:40;;;;;;;46.50;27.45;;;;;;;-1.32;100.00;99296.05;1794001;79;20948;-64
2021/12/31 04:55:09;;;;;;;48.35;28.87;;;;;;;-1.32;100.00;99301.91;1788170;79;21589;-65
2021/12/31 04:57:35;;;;;;;51.63;30.23;;;;;;;-1.32;100.00;99300.06;1782057;79;21038;-65
2021/12/31 05:00:04;;;;;;;53.15;30.32;;;;;;;-1.32;100.00;99303.23;1789281;79;21497;-65
2021/12/31 05:02:31;;;;;;;52.40;28.57;;;;;;;-1.29;100.00;99299.64;1793961;79;21534;-65
2021/12/31 05:04:58;;;;;;;48.70;28.98;;;;;;;-1.22;100.00;99296.96;1814478;79;21054;-64
2021/12/31 05:07:24;;;;;;;51.90;29.27;;;;;;;-1.24;100.00;99289.69;1792119;79;21617;-64
2021/12/31 05:09:51;;;;;;;49.80;28.92;;;;;;;-1.24;100.00;99289.69;1762648;79;21008;-64
2021/12/31 05:12:24;;;;;;;55.03;30.37;;;;;;;-1.19;100.00;99296.55;1794456;79;21111;-65
2021/12/31 05:14:47;;;;;;;49.25;29.70;;;;;;;-1.13;100.00;99294.38;1788133;80;21475;-64
2021/12/31 05:17:14;;;;;;;47.80;29.00;;;;;;;-1.11;100.00;99291.00;1796446;79;21032;-65
2021/12/31 05:19:43;;;;;;;43.63;24.92;;;;;;;-1.17;100.00;99281.95;1800550;79;21002;-65
2021/12/31 05:22:11;;;;;;;51.45;29.40;;;;;;;-1.13;100.00;99274.34;1804884;79;21061;-64
2021/12/31 05:24:38;;;;;;;46.90;26.75;;;;;;;-1.11;100.00;99271.79;1788911;80;20958;-65
2021/12/31 05:27:04;;;;;;;;;;;;;;;-1.10;100.00;99273.41;1816235;79;21530;-64
2021/12/31 05:29:30;;;;;;;51.40;28.70;;;;;;;-1.15;100.00;99277.75;1790261;79;20137;-65
2021/12/31 05:31:58;;;;;;;50.20;28.57;;;;;;;-1.11;100.00;99281.65;1773093;81;21076;-64
2021/12/31 05:34:24;;;;;;;;;;;;;;;-1.06;100.00;99281.31;1788381;80;21073;-65
2021/12/31 05:36:50;;;;;;;49.98;29.55;;;;;;;-1.05;100.00;99284.30;1773414;79;20396;-65
2021/12/31 05:39:17;;;;;;;55.60;29.48;;;;;;;-1.10;100.00;99279.30;1774134;80;20981;-65
2021/12/31 05:41:43;;;;;;;46.88;27.02;;;;;;;-1.07;100.00;99280.20;1773992;79;21045;-65
2021/12/31 05:44:10;;;;;;;52.10;29.87;;;;;;;-1.03;100.00;99268.87;1772778;81;21021;-65
2021/12/31 05:46:37;;;;;;;48.40;28.57;;;;;;;-0.99;100.00;99273.83;1775493;80;20993;-65
2021/12/31 05:49:04;;;;;;;49.70;28.67;;;;;;;-1.03;100.00;99277.43;1759744;80;21580;-65
2021/12/31 05:51:31;;;;;;;48.00;27.50;;;;;;;-0.99;100.00;99279.17;1765275;80;21045;-64
2021/12/31 05:53:58;;;;;;;47.17;28.30;;;;;;;-0.91;100.00;99281.59;1794703;80;21007;-65
2021/12/31 05:56:24;;;;;;;47.10;28.32;;;;;;;-0.86;100.00;99277.80;1759083;81;21104;-64
2021/12/31 05:58:51;;;;;;;48.63;26.70;;;;;;;-0.86;100.00;99282.63;1771168;81;21026;-64
2021/12/31 06:01:17;;;;;;;52.25;29.35;;;;;;;-0.90;100.00;99281.91;1771480;79;21353;-64
2021/12/31 06:03:43;;;;;;;47.58;27.77;;;;;;;-0.88;100.00;99283.84;1771192;80;21546;-64
2021/12/31 06:06:10;;;;;;;48.75;27.95;;;;;;;-0.83;100.00;99292.08;1770755;80;21005;-65
2021/12/31 06:08:36;;;;;;;46.13;28.23;;;;;;;-0.78;100.00;99287.73;1771823;80;21005;-65
2021/12/31 06:11:02;;;;;;;43.13;24.52;;;;;;;-0.76;100.00;99286.20;1785531;79;21569;-64
2021/12/31 06:13:30;;;;;;;51.95;29.60;;;;;;;-0.78;100.00;99285.06;1794497;79;20996;-65
2021/12/31 06:15:58;;;;;;;53.58;28.57;;;;;;;-0.76;100.00;99293.70;1807350;79;21067;-64
2021/12/31 06:18:26;;;;;;;54.25;29.20;;;;;;;-0.70;100.00;99290.19;1794139;79;21014;-64
2021/12/31 06:20:53;;;;;;;;;;;;;;;-0.64;100.00;99305.38;1764065;80;21065;-65
2021/12/31 06:23:19;;;;;;;52.03;28.52;;;;;;;-0.61;100.00;99308.98;1776118;80;20419;-65
2021/12/31 06:25:46;;;;;;;56.98;30.70;;;;;;;-0.66;100.00;99310.13;1797846;78;21217;-64
2021/12/31 06:28:13;;;;;;;;;;;;;;;-0.66;100.00;99303.95;1802665;79;21008;-64
2021/12/31 06:30:39;;;;;;;51.90;28.32;;;;;;;-0.58;100.00;99303.22;1791036;79;20112;-64
2021/12/31 06:33:06;;;;;;;53.70;28.85;;;;;;;-0.53;100.00;99301.23;1800860;79;21019;-65
2021/12/31 06:35:32;;;;;;;52.53;30.50;;;;;;;-0.50;100.00;99300.29;1799995;79;21150;-64
2021/12/31 06:38:01;;;;;;;54.60;31.00;;;;;;;-0.47;100.00;99301.74;1793095;79;21048;-65
2021/12/31 06:40:29;;;;;;;58.42;32.90;;;;;;;-0.51;100.00;99308.54;1791426;79;21037;-64
2021/12/31 06:42:55;;;;;;;56.68;31.37;;;;;;;-0.53;100.00;99306.06;1797523;79;20990;-64
2021/12/31 06:45:21;;;;;;;51.18;28.90;;;;;;;-0.46;100.00;99305.23;1793704;79;21014;-64
2021/12/31 06:47:48;;;;;;;55.65;29.98;;;;;;;-0.39;100.00;99304.70;1792108;79;21072;-64
2021/12/31 06:50:14;;;;;;;55.33;30.95;;;;;;;-0.33;100.00;99306.01;1804640;79;21087;-64
2021/12/31 06:52:42;;;;;;;;;;;;;;;-0.31;100.00;99307.11;1811787;79;21057;-64
2021/12/31 06:55:08;;;;;;;46.10;24.63;;;;;;;-0.34;100.00;99303.02;1791932;79;20135;-64
2021/12/31 06:57:35;;;;;;;51.63;27.80;;;;;;;-0.37;100.00;99310.13;1789104;80;21046;-64
2021/12/31 07:00:05;;;;;;;51.85;28.57;;;;;;;-0.31;100.00;99304.44;1790046;80;21037;-64
2021/12/31 07:02:31;;;;;;;55.90;29.02;;;;;;;-0.26;100.00;99305.46;1789899;79;21019;-64
2021/12/31 07:04:58;;;;;;;53.15;28.83;;;;;;;-0.21;100.00;99305.63;1765643;80;21488;-65
2021/12/31 07:07:26;;;;;;;57.27;29.05;;;;;;;-0.19;100.00;99305.43;1791205;80;21104;-64
2021/12/31 07:09:52;;;;;;;51.75;28.55;;;;;;;-0.21;100.00;99302.13;1792078;80;21465;-64
2021/12/31 07:12:19;;;;;;;55.00;30.25;;;;;;;-0.22;100.00;99299.17;1791676;79;21041;-64
2021/12/31 07:14:47;;;;;;;56.30;28.80;;;;;;;-0.14;100.00;99307.75;1791544;80;21026;-64
2021/12/31 07:17:13;;;;;;;54.03;27.70;;;;;;;-0.05;100.00;99310.51;1788202;79;21114;-64
2021/12/31 07:19:40;;;;;;;54.83;27.65;;;;;;;-0.03;100.00;99301.73;1789815;80;21010;-65
2021/12/31 07:22:06;;;;;;;56.35;29.15;;;;;;;0.04;100.00;99312.40;1788992;80;21030;-64
2021/12/31 07:24:32;;;;;;;55.63;28.20;;;;;;;-0.01;100.00;99307.71;1764120;80;20990;-64
2021/12/31 07:26:59;;;;;;;57.17;30.08;;;;;;;-0.02;100.00;99310.08;1765748;79;21599;-64
2021/12/31 07:29:25;;;;;;;96.47;49.13;;;;;;;0.03;100.00;99310.78;1796741;79;21041;-65
2021/12/31 07:31:52;;;;;;;64.87;34.73;;;;;;;0.11;100.00;99305.16;1794401;79;21545;-64
2021/12/31 07:34:18;;;;;;;;;;;;;;;0.16;100.00;99302.67;1800909;79;21014;-64
2021/12/31 07:36:44;;;;;;;60.67;31.37;;;;;;;0.16;100.00;99302.67;1779583;79;20122;-65
2021/12/31 07:39:13;;;;;;;55.12;29.48;;;;;;;0.11;100.00;99307.83;1775398;79;21029;-64
2021/12/31 07:41:40;;;;;;;62.17;30.02;;;;;;;0.09;100.00;99297.88;1787491;79;21026;-65
2021/12/31 07:44:06;;;;;;;56.92;28.35;;;;;;;0.16;100.00;99304.00;1789031;79;21027;-64
2021/12/31 07:46:34;;;;;;;55.52;28.23;;;;;;;0.25;100.00;99297.34;1787850;79;21056;-64
2021/12/31 07:49:01;;;;;;;58.30;29.15;;;;;;;0.33;100.00;99294.93;1789331;79;21058;-65
2021/12/31 07:51:28;;;;;;;58.68;29.85;;;;;;;0.37;100.00;99292.13;1799682;79;21654;-64
2021/12/31 07:53:55;;;;;;;;;;;;;;;0.30;100.00;99289.50;1795472;79;21014;-65
2021/12/31 07:56:21;;;;;;;63.98;30.80;;;;;;;0.31;100.00;99295.16;1778591;79;20124;-64
2021/12/31 07:58:47;;;;;;;64.70;33.63;;;;;;;0.32;100.00;99294.11;1799165;79;21037;-64
2021/12/31 08:01:14;;;;;;;69.67;36.17;;;;;;;0.41;100.00;99289.32;1801389;79;21061;-65
2021/12/31 08:03:41;;;;;;;59.80;30.70;;;;;;;0.48;100.00;99292.25;1789609;79;21008;-65
2021/12/31 08:06:07;;;;;;;57.13;31.05;;;;;;;0.56;100.00;99287.67;1790666;79;21049;-65
2021/12/31 08:08:34;;;;;;;63.35;32.75;;;;;;;0.63;100.00;99280.41;1791597;79;21012;-65
2021/12/31 08:11:01;;;;;;;57.55;30.77;;;;;;;0.66;100.00;99284.80;1788455;79;21071;-66
2021/12/31 08:13:28;;;;;;;60.38;31.37;;;;;;;0.64;100.00;99287.41;1789406;79;21502;-65
2021/12/31 08:15:55;;;;;;;62.98;32.28;;;;;;;0.62;100.00;99297.50;1782578;79;21093;-65
2021/12/31 08:18:21;;;;;;;;;;;;;;;0.63;100.00;99294.62;1780853;80;21082;-65
2021/12/31 08:20:48;;;;;;;56.25;29.42;;;;;;;0.70;100.00;99286.01;1760657;81;20134;-65
2021/12/31 08:23:14;;;;;;;;;;;;;;;0.72;100.00;99292.47;1775405;80;21071;-66
2021/12/31 08:25:42;;;;;;;55.13;27.83;;;;;;;0.76;100.00;99293.67;1767982;80;20114;-65
2021/12/31 08:28:09;;;;;;;54.33;28.57;;;;;;;0.77;100.00;99289.97;1750151;81;20966;-65
2021/12/31 08:30:35;;;;;;;60.45;34.05;;;;;;;0.78;100.00;99290.27;1747506;81;21055;-65
2021/12/31 08:33:02;;;;;;;62.83;30.17;;;;;;;0.75;100.00;99287.49;1761416;81;21485;-65
2021/12/31 08:35:29;;;;;;;54.83;27.25;;;;;;;0.73;100.00;99291.44;1790756;79;21509;-65
2021/12/31 08:37:56;;;;;;;;;;;;;;;0.73;100.00;99295.46;1788679;80;21097;-65
2021/12/31 08:40:22;;;;;;;53.02;26.12;;;;;;;0.81;100.00;99287.98;1786861;80;20155;-65
2021/12/31 08:42:48;;;;;;;53.23;27.20;;;;;;;0.87;100.00;99293.79;1760741;80;21049;-65
2021/12/31 08:45:15;;;;;;;57.45;28.10;;;;;;;0.94;100.00;99287.02;1791230;79;21045;-66
2021/12/31 08:47:41;;;;;;;54.35;28.83;;;;;;;0.98;100.00;99297.61;1815226;79;21043;-67
2021/12/31 08:50:09;;;;;;;51.40;27.55;;;;;;;0.91;100.00;99293.66;1782676;79;21009;-66
2021/12/31 08:52:36;;;;;;;54.75;27.87;;;;;;;0.91;100.00;99294.17;1773366;79;21090;-66
2021/12/31 08:55:05;;;;;;;48.65;26.40;;;;;;;0.98;100.00;99290.91;1772754;79;20970;-66
2021/12/31 08:57:33;;;;;;;57.13;27.95;;;;;;;1.09;100.00;99293.38;1789910;79;21045;-65
2021/12/31 09:00:00;;;;;;;52.10;28.10;;;;;;;1.17;100.00;99287.74;1791226;79;21013;-66
2021/12/31 09:02:26;;;;;;;50.43;28.77;;;;;;;1.25;100.00;99284.23;1790118;79;21068;-66
2021/12/31 09:04:53;;;;;;;60.05;31.87;;;;;;;1.34;100.00;99283.43;1784165;79;20994;-66
2021/12/31 09:07:19;;;;;;;54.40;29.42;;;;;;;1.36;100.00;99287.52;1777127;79;21110;-67
2021/12/31 09:09:45;;;;;;;52.88;27.52;;;;;;;1.33;100.00;99280.44;1796147;79;21514;-67
2021/12/31 09:12:12;;;;;;;52.23;26.87;;;;;;;1.39;100.00;99280.88;1793084;79;21049;-66
2021/12/31 09:14:40;;;;;;;49.50;26.20;;;;;;;1.48;100.00;99281.72;1784312;79;20934;-67
2021/12/31 09:17:07;;;;;;;;;;;;;;;1.53;100.00;99281.55;1786680;79;21053;-65
2021/12/31 09:19:34;;;;;;;54.13;28.47;;;;;;;1.58;100.00;99281.70;1797880;79;20146;-67
2021/12/31 09:22:00;;;;;;;54.65;29.40;;;;;;;1.62;100.00;99285.58;1780681;80;21324;-67
2021/12/31 09:24:26;;;;;;;56.48;30.37;;;;;;;1.61;100.00;99279.39;1777379;79;20929;-67
2021/12/31 09:26:53;;;;;;;49.70;27.02;;;;;;;1.60;100.00;99280.94;1781284;79;21572;-67
2021/12/31 09:29:21;;;;;;;55.78;29.55;;;;;;;1.58;100.00;99273.14;1771408;79;21016;-67
2021/12/31 09:31:48;;;;;;;51.08;26.30;;;;;;;1.60;100.00;99277.74;1783921;79;21078;-68
2021/12/31 09:34:14;;;;;;;45.73;23.77;;;;;;;1.68;100.00;99277.44;1770957;79;20979;-65
2021/12/31 09:36:41;;;;;;;;;;;;;;;1.74;100.00;99273.02;1773518;79;21080;-64
2021/12/31 09:39:08;;;;;;;48.05;24.72;;;;;;;1.76;100.00;99261.56;1765057;79;20128;-65
2021/12/31 09:49:22;;;;;;;50.03;26.93;;;;;;;1.74;100.00;99255.06;1786500;79;22920;-63
2021/12/31 09:51:49;;;;;;;45.08;24.15;;;;;;;1.76;100.00;99261.56;1739373;80;21047;-64
2021/12/31 09:54:17;;;;;;;47.95;24.35;;;;;;;1.83;100.00;99261.77;1762696;80;21015;-65
2021/12/31 09:56:43;;;;;;;39.18;21.45;;;;;;;1.82;100.00;99256.10;1757844;81;21064;-64
2021/12/31 09:59:10;;;;;;;39.78;23.10;;;;;;;1.79;100.00;99254.39;1762851;81;21010;-63
2021/12/31 10:01:51;;;;;;;42.17;22.17;;;;;;;1.75;100.00;99258.57;1764060;81;21082;-63
2021/12/31 10:04:18;;;;;;;41.68;21.85;;;;;;;1.71;100.00;99254.18;1747474;80;21011;-64
2021/12/31 10:07:12;;;;;;;40.70;21.90;;;;;;;1.75;100.00;99247.84;1752529;80;21180;-63
2021/12/31 10:09:40;;;;;;;41.37;22.73;;;;;;;1.85;100.00;99252.95;1760139;80;21644;-64
2021/12/31 10:12:08;;;;;;;39.73;21.30;;;;;;;1.96;100.00;99249.51;1756007;81;21903;-63
2021/12/31 10:14:37;;;;;;;41.30;23.55;;;;;;;2.02;100.00;99253.13;1754729;81;21049;-63
2021/12/31 10:17:06;;;;;;;43.60;24.32;;;;;;;2.05;100.00;99245.16;1756456;81;21085;-63
2021/12/31 10:19:32;;;;;;;46.88;25.30;;;;;;;2.07;100.00;99240.38;1756366;81;21039;-63
2021/12/31 10:21:59;;;;;;;43.55;25.00;;;;;;;2.07;100.00;99239.86;1758686;80;21028;-63
2021/12/31 10:24:39;;;;;;;42.23;23.65;;;;;;;2.14;100.00;99239.23;1753014;81;21668;-64
2021/12/31 10:27:20;;;;;;;41.08;21.62;;;;;;;2.23;100.00;99242.42;1755919;81;21066;-64
2021/12/31 10:30:05;;;;;;;40.52;22.45;;;;;;;2.26;100.00;99248.67;1752879;81;21655;-64
2021/12/31 10:32:40;;;;;;;41.77;23.10;;;;;;;2.26;100.00;99245.98;1720381;82;21035;-64
2021/12/31 10:35:20;;;;;;;41.25;22.37;;;;;;;2.22;100.00;99238.91;1757901;81;21017;-63
2021/12/31 10:44:58;;;;;;;38.78;21.52;;;;;;;2.29;100.00;99234.78;1776421;79;22679;-64
2021/12/31 10:47:37;;;;;;;36.75;21.25;;;;;;;2.29;100.00;99228.89;1716410;81;21067;-63
2021/12/31 10:50:07;;;;;;;;;;;;;;;2.28;100.00;99237.98;1726141;82;21005;-64
2021/12/31 10:52:54;;;;;;;41.33;22.40;;;;;;;2.34;100.00;99228.17;1720831;82;20140;-64
2021/12/31 10:55:22;;;;;;;41.28;23.20;;;;;;;2.39;100.00;99226.45;1715361;83;21439;-64
2021/12/31 10:57:51;;;;;;;38.02;21.37;;;;;;;2.44;100.00;99221.18;1724535;83;21464;-64
2021/12/31 11:00:18;;;;;;;36.13;20.72;;;;;;;2.51;100.00;99219.76;1723044;83;21486;-63
2021/12/31 11:02:45;;;;;;;37.85;21.30;;;;;;;2.47;100.00;99223.43;1722122;83;20999;-64
2021/12/31 11:05:14;;;;;;;36.23;22.15;;;;;;;2.42;100.00;99219.27;1719715;83;20961;-65
2021/12/31 11:07:41;;;;;;;38.85;21.12;;;;;;;2.42;100.00;99215.23;1724335;83;20981;-64
2021/12/31 11:10:09;;;;;;;38.30;20.40;;;;;;;2.45;100.00;99205.89;1723713;83;20981;-65
2021/12/31 11:12:36;;;;;;;37.65;19.50;;;;;;;2.53;100.00;99214.95;1722950;83;21115;-66
2021/12/31 11:15:04;;;;;;;41.23;22.17;;;;;;;2.59;100.00;99218.05;1718633;83;20951;-64
2021/12/31 11:17:31;;;;;;;73.97;38.35;;;;;;;2.61;100.00;99208.42;1723788;82;21025;-64
2021/12/31 11:19:58;;;;;;;90.38;50.63;;;;;;;2.60;100.00;99210.81;1724028;83;21006;-64
2021/12/31 11:22:26;;;;;;;78.40;46.25;;;;;;;2.59;100.00;99210.54;1724053;82;21536;-64
2021/12/31 11:24:53;;;;;;;59.05;33.67;;;;;;;2.65;100.00;99205.56;1724461;83;21528;-64
2021/12/31 11:27:42;;;;;;;42.65;22.30;;;;;;;2.74;100.00;99188.84;1694955;83;21031;-64
2021/12/31 11:30:05;;;;;;;43.38;23.07;;;;;;;2.84;100.00;99196.31;1723200;83;21022;-65
2021/12/31 11:33:05;;;;;;;46.42;24.00;;;;;;;2.89;100.00;99187.03;1719563;82;21549;-64
2021/12/31 11:35:44;;;;;;;46.65;25.40;;;;;;;2.89;100.00;99181.66;1706728;83;20959;-65
2021/12/31 11:38:25;;;;;;;49.67;25.60;;;;;;;2.79;100.00;99170.69;1724308;83;21509;-64
2021/12/31 11:41:04;;;;;;;40.60;22.00;;;;;;;2.72;100.00;99178.87;1686549;83;21046;-64
2021/12/31 11:43:31;;;;;;;43.73;21.68;;;;;;;2.75;100.00;99173.55;1690412;85;21059;-64
2021/12/31 11:46:18;;;;;;;37.63;20.02;;;;;;;2.79;100.00;99172.84;1708965;84;21086;-64
2021/12/31 11:48:52;;;;;;;41.77;20.80;;;;;;;2.85;100.00;99175.11;1711234;84;21456;-65
2021/12/31 11:51:28;;;;;;;44.10;23.62;;;;;;;2.89;100.00;99166.87;1710983;82;21106;-65
2021/12/31 11:54:04;;;;;;;45.20;21.95;;;;;;;2.90;100.00;99172.02;1711564;83;21007;-65
2021/12/31 11:56:41;;;;;;;51.45;22.02;;;;;;;2.86;100.00;99172.72;1691682;83;21030;-65
2021/12/31 11:59:16;;;;;;;38.95;19.40;;;;;;;2.78;100.00;99173.07;1700124;84;21034;-65
2021/12/31 12:01:52;;;;;;;44.60;21.70;;;;;;;2.78;100.00;99166.35;1711077;82;21083;-65
2021/12/31 12:04:34;;;;;;;43.92;21.07;;;;;;;2.82;100.00;99166.17;1709347;83;21063;-65